Kezdőlap
METAR-TAF:

METAR-TAF

Repülőterek :

Fairmont Municipal Airport

Fairmont, Minnesota, Amerikai Egyesült Államok

földrajzi szélesség: 43-39N, földrajzi hosszúság: 094-25W, magasság: 354 m

Jelenlegi meteorológiai megfigyelések

A jelentés 19 perccel ezelõtt készült, 18:56 UTC
Észak-északnyugati szél 16 kt széllökések: 22 kt
Hőmérséklet 4°C
Páratartalom 65%
Légköri nyomás 1011 hPa
Látótávolság: 16.1 km
Szakadozott felhőzet 3400 lábon

METAR: KFRM 231856Z AUTO 33016G22KT 10SM BKN034 04/M02 A2984 RMK AO2 SLP118 T00441022

Idő: 13:15 (19:15 UTC)


TAF: hiányzik

Meteorológiai megfigyelések és előrejelzések több, mint 4000 repülőtéren (METAR és TAF jelentéseket).

A térképen piros és sárga pontok jelzik az elérhető meteorológiai állomásokat.

Mozgassa az egeret a pont fölött, hogy megjelenjen az állomás neve.

Azután kattintson az időjárási megfigyelések és előrejelzések megtekintéséhez.

A térkép megváltoztatása: kattintson a fekete keresztel jelölt zöld gombra ráközelítéshez, a vonallal jelölt zöld gombra távolításhoz, vagy a zöld nyilakra a szomszédos térképek eléréséhez.


METAR-TAF: